createdAt,value
2019-01-12T00:01:14.340Z,23.80
2019-01-12T00:03:46.618Z,24.50
2019-01-12T00:06:18.600Z,29.47
2019-01-12T00:08:52.104Z,29.80
2019-01-12T00:11:23.962Z,31.17
2019-01-12T00:13:55.816Z,28.63
2019-01-12T00:16:28.080Z,29.27
2019-01-12T00:18:59.894Z,25.00
2019-01-12T00:21:31.781Z,23.93
2019-01-12T00:24:03.697Z,25.17
2019-01-12T00:26:35.540Z,25.43
2019-01-12T00:29:07.424Z,24.80
2019-01-12T00:31:39.316Z,24.13
2019-01-12T00:34:11.322Z,24.67
2019-01-12T00:36:43.306Z,25.73
2019-01-12T00:39:15.149Z,22.57
2019-01-12T00:41:47.136Z,20.73
2019-01-12T00:44:19.021Z,21.70
2019-01-12T00:46:50.840Z,21.70
2019-01-12T00:49:22.735Z,23.73
2019-01-12T00:51:54.584Z,20.50
2019-01-12T00:54:27.209Z,20.53
2019-01-12T00:56:59.507Z,20.33
2019-01-12T00:59:31.390Z,21.90
2019-01-12T01:02:03.303Z,18.80
2019-01-12T01:04:35.187Z,14.03
2019-01-12T01:07:07.067Z,11.60
2019-01-12T01:09:39.262Z,15.83
2019-01-12T01:12:11.257Z,14.40
2019-01-12T01:14:43.139Z,12.63
2019-01-12T01:17:14.980Z,13.07
2019-01-12T01:19:46.914Z,17.50
2019-01-12T01:22:18.807Z,20.87
2019-01-12T01:24:52.901Z,15.03
2019-01-12T01:27:24.761Z,13.03
2019-01-12T01:29:56.654Z,16.97
2019-01-12T01:32:28.553Z,18.43
2019-01-12T01:35:00.474Z,18.67
2019-01-12T01:37:32.367Z,18.80
2019-01-12T01:40:05.375Z,16.20
2019-01-12T01:42:37.330Z,16.33
2019-01-12T01:45:11.932Z,14.23
2019-01-12T01:47:43.812Z,17.27
2019-01-12T01:50:16.191Z,14.00
2019-01-12T01:52:48.492Z,11.77
2019-01-12T01:55:20.509Z,14.37
2019-01-12T01:57:52.385Z,21.53
2019-01-12T02:00:24.227Z,19.63
2019-01-12T02:02:56.141Z,18.40
2019-01-12T02:05:29.145Z,19.17
2019-01-12T02:08:00.982Z,18.30
2019-01-12T02:10:32.876Z,17.53
2019-01-12T02:13:04.815Z,13.23
2019-01-12T02:15:38.579Z,13.47
2019-01-12T02:18:10.430Z,14.70
2019-01-12T02:20:42.451Z,14.63
2019-01-12T02:23:14.343Z,14.60
2019-01-12T02:25:46.200Z,12.57
2019-01-12T02:28:19.681Z,11.70
2019-01-12T02:30:51.563Z,11.83
2019-01-12T02:33:23.421Z,12.10
2019-01-12T02:35:55.251Z,11.70
2019-01-12T02:38:28.652Z,13.17
2019-01-12T02:41:00.488Z,13.07
2019-01-12T02:43:32.379Z,13.70
2019-01-12T02:46:06.175Z,11.90
2019-01-12T02:48:38.019Z,11.97
2019-01-12T02:51:09.952Z,12.30
2019-01-12T02:53:44.700Z,9.33
2019-01-12T02:56:16.580Z,8.47
2019-01-12T02:58:48.469Z,8.37
2019-01-12T03:01:20.392Z,7.73
2019-01-12T03:03:55.750Z,9.43
2019-01-12T03:06:27.596Z,7.90
2019-01-12T03:09:01.039Z,8.53
2019-01-12T03:11:34.744Z,8.73
2019-01-12T03:14:06.719Z,9.80
2019-01-12T03:16:38.995Z,9.53
2019-01-12T03:19:11.307Z,9.13
2019-01-12T03:21:44.556Z,10.60
2019-01-12T03:24:19.119Z,10.87
2019-01-12T03:26:51.090Z,10.57
2019-01-12T03:29:24.741Z,10.27
2019-01-12T03:31:56.662Z,9.90
2019-01-12T03:34:29.495Z,10.73
2019-01-12T03:37:01.429Z,10.30
2019-01-12T03:39:33.277Z,9.87
2019-01-12T03:42:05.600Z,9.43
2019-01-12T03:44:38.612Z,8.13
2019-01-12T03:47:10.486Z,10.73
2019-01-12T03:49:42.365Z,8.83
2019-01-12T03:52:14.190Z,9.33
2019-01-12T03:54:46.498Z,8.37
2019-01-12T03:57:18.317Z,9.20
2019-01-12T03:59:50.297Z,9.20
2019-01-12T04:02:22.134Z,9.20
2019-01-12T04:04:54.012Z,9.40
2019-01-12T04:07:25.840Z,9.03
2019-01-12T04:09:58.108Z,9.87
2019-01-12T04:12:31.899Z,9.30
2019-01-12T04:15:06.106Z,8.40
2019-01-12T04:17:39.583Z,9.07
2019-01-12T04:20:13.784Z,8.37
2019-01-12T04:22:45.682Z,10.43
2019-01-12T04:25:17.632Z,9.43
2019-01-12T04:27:49.495Z,11.03
2019-01-12T04:30:21.381Z,10.60
2019-01-12T04:32:53.376Z,9.47
2019-01-12T04:35:25.276Z,8.93
2019-01-12T04:38:00.811Z,9.13
2019-01-12T04:40:33.346Z,9.83
2019-01-12T04:43:05.246Z,10.00
2019-01-12T04:45:37.112Z,8.83
2019-01-12T04:48:08.982Z,8.30
2019-01-12T04:50:41.261Z,7.77
2019-01-12T04:53:13.106Z,8.40
2019-01-12T04:55:44.996Z,8.43
2019-01-12T04:58:16.847Z,8.17
2019-01-12T05:00:49.127Z,7.90
2019-01-12T05:03:21.170Z,7.93
2019-01-12T05:05:53.028Z,7.53
2019-01-12T05:08:27.900Z,7.27
2019-01-12T05:11:02.118Z,7.77
2019-01-12T05:13:33.985Z,7.30
2019-01-12T05:16:06.002Z,7.70
2019-01-12T05:18:37.824Z,6.77
2019-01-12T05:21:09.709Z,7.33
2019-01-12T05:23:43.165Z,6.90
2019-01-12T05:26:15.039Z,7.47
2019-01-12T05:28:47.000Z,6.90
2019-01-12T05:31:21.701Z,7.30
2019-01-12T05:33:53.973Z,8.20
2019-01-12T05:36:25.807Z,7.20
2019-01-12T05:38:57.691Z,6.83
2019-01-12T05:41:29.559Z,7.00
2019-01-12T05:44:01.414Z,7.33
2019-01-12T05:46:33.245Z,6.63
2019-01-12T05:49:05.526Z,6.70
2019-01-12T05:51:37.355Z,7.00
2019-01-12T05:54:09.170Z,7.73
2019-01-12T05:56:41.097Z,7.67
2019-01-12T05:59:12.910Z,7.17
2019-01-12T06:01:44.795Z,7.23
2019-01-12T06:04:17.969Z,7.27
2019-01-12T06:06:49.878Z,8.00
2019-01-12T06:09:21.756Z,7.80
2019-01-12T06:11:55.566Z,9.23
2019-01-12T06:14:27.405Z,8.13
2019-01-12T06:16:59.274Z,7.83
2019-01-12T06:19:31.114Z,9.10
2019-01-12T06:22:02.993Z,8.10
2019-01-12T06:24:34.853Z,9.00
2019-01-12T06:27:06.749Z,8.27
2019-01-12T06:29:38.797Z,7.80
2019-01-12T06:32:10.695Z,7.37
2019-01-12T06:34:42.533Z,7.50
2019-01-12T06:37:14.831Z,7.33
2019-01-12T06:39:46.656Z,7.80
2019-01-12T06:42:18.513Z,8.53
2019-01-12T06:44:50.351Z,8.53
2019-01-12T06:47:22.216Z,7.60
2019-01-12T06:49:57.298Z,7.97
2019-01-12T06:52:29.239Z,7.63
2019-01-12T06:55:01.482Z,7.33
2019-01-12T06:57:33.365Z,7.57
2019-01-12T07:00:08.222Z,7.77
2019-01-12T07:02:40.147Z,7.97
2019-01-12T07:05:12.604Z,8.57
2019-01-12T07:07:44.686Z,8.23
2019-01-12T07:10:19.146Z,8.73
2019-01-12T07:12:51.024Z,8.20
2019-01-12T07:15:23.232Z,7.37
2019-01-12T07:17:55.081Z,7.73
2019-01-12T07:20:26.931Z,7.23
2019-01-12T07:22:58.776Z,7.33
2019-01-12T07:25:33.868Z,7.87
2019-01-12T07:28:05.916Z,7.73
2019-01-12T07:30:40.221Z,8.00
2019-01-12T07:33:13.726Z,7.20
2019-01-12T07:35:45.542Z,7.67
2019-01-12T07:38:17.431Z,6.67
2019-01-12T07:40:49.267Z,7.77
2019-01-12T07:43:21.159Z,7.00
2019-01-12T07:45:53.007Z,7.87
2019-01-12T07:48:24.888Z,7.57
2019-01-12T07:50:56.909Z,7.80
2019-01-12T07:53:29.103Z,7.67
2019-01-12T07:56:01.030Z,8.07
2019-01-12T07:58:32.865Z,7.90
2019-01-12T08:01:04.994Z,7.00
2019-01-12T08:03:36.863Z,6.77
2019-01-12T08:06:08.730Z,7.27
2019-01-12T08:08:40.590Z,6.80
2019-01-12T08:11:12.472Z,8.00
2019-01-12T08:13:44.327Z,6.97
2019-01-12T08:16:16.215Z,7.47
2019-01-12T08:18:51.302Z,7.53
2019-01-12T08:21:23.287Z,8.67
2019-01-12T08:23:56.969Z,7.33
2019-01-12T08:26:31.331Z,7.63
2019-01-12T08:29:02.525Z,7.10
2019-01-12T08:31:34.522Z,7.33
2019-01-12T08:34:09.068Z,8.00
2019-01-12T08:36:40.937Z,7.50
2019-01-12T08:39:13.275Z,8.57
2019-01-12T08:41:46.693Z,8.10
2019-01-12T08:44:18.910Z,8.93
2019-01-12T08:46:50.871Z,9.10
2019-01-12T08:49:22.941Z,8.97
2019-01-12T08:51:54.805Z,8.20
2019-01-12T08:54:26.711Z,7.57
2019-01-12T08:56:58.547Z,8.03
2019-01-12T08:59:32.236Z,8.63
2019-01-12T09:02:04.247Z,7.50
2019-01-12T09:04:43.448Z,7.77
2019-01-12T09:07:09.809Z,7.77
2019-01-12T09:09:41.685Z,7.40
2019-01-12T09:12:15.384Z,7.97
2019-01-12T09:14:47.282Z,7.07
2019-01-12T09:17:20.412Z,7.97
2019-01-12T09:19:52.367Z,7.87
2019-01-12T09:22:24.236Z,10.67
2019-01-12T09:24:56.252Z,11.23
2019-01-12T09:27:28.069Z,10.07
2019-01-12T09:30:00.438Z,9.27
2019-01-12T09:32:32.785Z,10.73
2019-01-12T09:35:05.321Z,11.00
2019-01-12T09:37:38.913Z,11.83
2019-01-12T09:40:18.031Z,11.35
2019-01-12T09:42:52.183Z,12.63
2019-01-12T09:45:24.195Z,12.20
2019-01-12T09:47:56.184Z,12.05
2019-01-12T09:50:28.034Z,12.90
2019-01-12T09:53:07.046Z,12.50
2019-01-12T09:55:38.897Z,12.50
2019-01-12T09:58:12.767Z,12.88
2019-01-12T10:00:44.735Z,15.60
2019-01-12T10:03:16.569Z,18.82
2019-01-12T10:05:48.456Z,16.65
2019-01-12T10:08:20.395Z,19.70
2019-01-12T10:10:52.263Z,16.25
2019-01-12T10:13:24.171Z,14.00
2019-01-12T10:15:56.111Z,14.68
2019-01-12T10:18:28.042Z,13.58
2019-01-12T10:21:00.035Z,13.13
2019-01-12T10:23:31.949Z,13.78
2019-01-12T10:26:03.831Z,12.93
2019-01-12T10:28:35.764Z,14.53
2019-01-12T10:31:08.112Z,14.10
2019-01-12T10:33:40.077Z,14.40
2019-01-12T10:36:12.014Z,13.58
2019-01-12T10:38:45.077Z,14.05
2019-01-12T10:41:17.100Z,20.92
2019-01-12T10:43:49.083Z,11.18
2019-01-12T10:46:21.069Z,8.13
2019-01-12T10:48:52.918Z,9.73
2019-01-12T10:51:24.790Z,7.20
2019-01-12T10:53:56.691Z,8.48
2019-01-12T10:56:28.706Z,5.80
2019-01-12T10:59:00.870Z,6.85
2019-01-12T11:01:32.754Z,3.87
2019-01-12T11:04:05.459Z,3.40
2019-01-12T11:06:37.299Z,3.70
2019-01-12T11:09:09.905Z,4.58
2019-01-12T11:11:41.717Z,3.52
2019-01-12T11:14:13.632Z,3.75
2019-01-12T11:16:45.494Z,3.77
2019-01-12T11:19:17.379Z,3.52
2019-01-12T11:21:49.299Z,2.72
2019-01-12T11:24:21.567Z,3.92
2019-01-12T11:26:53.421Z,3.75
2019-01-12T11:29:26.074Z,8.93
2019-01-12T11:31:57.991Z,4.33
2019-01-12T11:34:29.821Z,6.12
2019-01-12T11:37:01.703Z,3.80
2019-01-12T11:39:35.420Z,2.87
2019-01-12T11:42:07.414Z,9.90
2019-01-12T11:44:39.280Z,3.60
2019-01-12T11:47:11.197Z,4.67
2019-01-12T11:49:43.000Z,2.65
2019-01-12T11:52:18.722Z,1.90
2019-01-12T11:54:50.585Z,3.00
2019-01-12T11:57:22.474Z,5.55
2019-01-12T11:59:56.411Z,2.30
2019-01-12T12:02:28.290Z,17.05
2019-01-12T12:05:00.238Z,2.80
2019-01-12T12:07:33.111Z,16.23
2019-01-12T12:10:05.959Z,6.37
2019-01-12T12:12:37.832Z,3.27
2019-01-12T12:15:10.948Z,5.83
2019-01-12T12:17:44.708Z,5.50
2019-01-12T12:20:21.561Z,2.80
2019-01-12T12:22:53.657Z,2.85
2019-01-12T12:25:25.786Z,10.82
2019-01-12T12:27:57.741Z,23.57
2019-01-12T12:30:32.295Z,24.43
2019-01-12T12:33:04.539Z,20.17
2019-01-12T12:35:37.889Z,7.42
2019-01-12T12:38:10.053Z,24.50
2019-01-12T12:40:42.034Z,31.42
2019-01-12T12:43:13.903Z,12.33
2019-01-12T12:45:46.114Z,7.35
2019-01-12T12:48:18.075Z,4.45
2019-01-12T12:50:49.956Z,71.65
2019-01-12T12:53:21.816Z,10.43
2019-01-12T12:55:54.757Z,3.70
2019-01-12T12:58:26.627Z,3.70
2019-01-12T13:00:58.529Z,3.50
2019-01-12T13:03:32.055Z,3.87
2019-01-12T13:06:03.980Z,3.70
2019-01-12T13:08:35.852Z,3.83
2019-01-12T13:11:07.871Z,3.65
2019-01-12T13:13:40.237Z,3.50
2019-01-12T13:16:12.099Z,3.30
2019-01-12T13:18:44.141Z,4.10
2019-01-12T13:21:16.021Z,4.55
2019-01-12T13:23:50.143Z,4.85
2019-01-12T13:26:23.964Z,3.87
2019-01-12T13:28:59.081Z,5.15
2019-01-12T13:31:31.114Z,4.55
2019-01-12T13:34:03.035Z,4.83
2019-01-12T13:36:34.994Z,3.90
2019-01-12T13:39:08.595Z,4.22
2019-01-12T13:41:40.860Z,27.62
2019-01-12T13:44:12.786Z,5.00
2019-01-12T13:46:44.697Z,4.37
2019-01-12T13:49:18.337Z,4.30
2019-01-12T13:51:50.440Z,3.58
2019-01-12T13:54:22.358Z,3.35
2019-01-12T13:56:54.245Z,3.20
2019-01-12T13:59:26.106Z,3.40
2019-01-12T14:01:58.036Z,4.45
2019-01-12T14:04:29.919Z,8.98
2019-01-12T14:07:01.814Z,3.47
2019-01-12T14:09:33.746Z,3.65
2019-01-12T14:12:05.655Z,3.55
2019-01-12T14:14:37.485Z,3.37
2019-01-12T14:17:09.743Z,5.30
2019-01-12T14:19:41.605Z,6.65
2019-01-12T14:22:14.963Z,5.45
2019-01-12T14:24:49.480Z,4.67
2019-01-12T14:27:22.446Z,6.60
2019-01-12T14:29:54.485Z,6.95
2019-01-12T14:32:26.502Z,5.50
2019-01-12T14:34:58.497Z,5.35
2019-01-12T14:37:32.814Z,6.08
2019-01-12T14:40:05.300Z,5.35
2019-01-12T14:42:37.212Z,3.95
2019-01-12T14:45:15.667Z,3.85
2019-01-12T14:47:47.615Z,3.10
2019-01-12T14:50:19.578Z,4.33
2019-01-12T14:52:51.526Z,3.35
2019-01-12T14:55:23.413Z,2.92
2019-01-12T14:58:01.653Z,3.25
2019-01-12T15:00:29.847Z,4.05
2019-01-12T15:03:02.151Z,8.68
2019-01-12T15:05:36.109Z,6.22
2019-01-12T15:08:09.996Z,3.65
2019-01-12T15:10:41.868Z,6.70
2019-01-12T15:13:13.807Z,3.52
2019-01-12T15:15:45.803Z,3.90
2019-01-12T15:18:18.024Z,5.62
2019-01-12T15:20:50.217Z,3.17
2019-01-12T15:23:23.605Z,3.25
2019-01-12T15:25:55.594Z,3.40
2019-01-12T15:28:27.543Z,2.95
2019-01-12T15:31:01.007Z,5.55
2019-01-12T15:33:32.991Z,10.82
2019-01-12T15:36:04.950Z,4.08
2019-01-12T15:38:36.836Z,3.70
2019-01-12T15:41:08.696Z,3.62
2019-01-12T15:43:40.566Z,3.25
2019-01-12T15:46:12.429Z,3.33
2019-01-12T15:48:44.386Z,2.83
2019-01-12T15:51:16.251Z,3.22
2019-01-12T15:53:51.040Z,5.37
2019-01-12T15:56:22.954Z,3.80
2019-01-12T15:58:54.816Z,4.17
2019-01-12T16:01:28.594Z,4.80
2019-01-12T16:04:01.076Z,6.10
2019-01-12T16:06:32.959Z,7.05
2019-01-12T16:09:07.891Z,5.67
2019-01-12T16:11:39.846Z,4.92
2019-01-12T16:14:12.397Z,7.12
2019-01-12T16:16:44.675Z,6.20
2019-01-12T16:19:16.577Z,4.55
2019-01-12T16:21:48.453Z,11.57
2019-01-12T16:24:20.408Z,5.75
2019-01-12T16:26:53.070Z,5.83
2019-01-12T16:29:27.928Z,6.00
2019-01-12T16:32:01.292Z,5.42
2019-01-12T16:34:35.771Z,9.68
2019-01-12T16:37:08.483Z,5.80
2019-01-12T16:39:40.549Z,6.17
2019-01-12T16:42:14.491Z,6.53
2019-01-12T16:44:46.385Z,6.58
2019-01-12T16:47:18.211Z,8.33
2019-01-12T16:49:53.449Z,15.98
2019-01-12T16:52:25.336Z,11.70
2019-01-12T16:54:57.229Z,6.92
2019-01-12T16:57:29.172Z,6.65
2019-01-12T17:00:06.514Z,8.55
2019-01-12T17:02:38.388Z,12.37
2019-01-12T17:05:13.488Z,11.15
2019-01-12T17:07:45.540Z,8.85
2019-01-12T17:10:19.528Z,8.73
2019-01-12T17:12:51.485Z,8.93
2019-01-12T17:15:24.328Z,12.58
2019-01-12T17:17:56.525Z,12.37
2019-01-12T17:20:30.630Z,12.68
2019-01-12T17:23:04.081Z,11.03
2019-01-12T17:25:36.458Z,11.70
2019-01-12T17:28:08.379Z,11.43
2019-01-12T17:30:40.304Z,11.68
2019-01-12T17:33:13.194Z,11.30
2019-01-12T17:35:45.105Z,10.18
2019-01-12T17:38:18.732Z,10.28
2019-01-12T17:40:50.690Z,10.15
2019-01-12T17:43:22.616Z,10.88
2019-01-12T17:45:58.129Z,11.25
2019-01-12T17:48:29.946Z,8.90
2019-01-12T17:51:01.979Z,13.20
2019-01-12T17:53:33.859Z,15.30
2019-01-12T17:56:06.101Z,13.85
2019-01-12T17:58:44.259Z,11.50
2019-01-12T18:01:11.732Z,15.45
2019-01-12T18:03:43.631Z,41.98
2019-01-12T18:06:15.532Z,50.95
2019-01-12T18:08:47.823Z,26.17
2019-01-12T18:11:21.509Z,28.65
2019-01-12T18:13:53.360Z,16.35
2019-01-12T18:16:25.453Z,21.95
2019-01-12T18:18:57.490Z,21.97
2019-01-12T18:21:29.371Z,22.45
2019-01-12T18:24:01.236Z,24.50
2019-01-12T18:26:33.648Z,33.30
2019-01-12T18:29:06.057Z,33.08
2019-01-12T18:31:38.416Z,35.28
2019-01-12T18:34:10.289Z,40.08
2019-01-12T18:36:42.153Z,38.05
2019-01-12T18:39:14.542Z,36.75
2019-01-12T18:41:46.487Z,36.20
2019-01-12T18:44:18.469Z,41.65
2019-01-12T18:46:50.475Z,44.53
2019-01-12T18:49:22.363Z,48.08
2019-01-12T18:51:55.890Z,60.80
2019-01-12T18:54:29.385Z,66.70
2019-01-12T18:57:01.354Z,62.45
2019-01-12T18:59:35.576Z,62.43
2019-01-12T19:02:07.532Z,76.92
2019-01-12T19:04:39.544Z,80.83
2019-01-12T19:07:11.394Z,76.07
2019-01-12T19:09:43.362Z,77.32
2019-01-12T19:12:15.275Z,81.05
2019-01-12T19:14:47.213Z,82.70
2019-01-12T19:17:20.881Z,82.08
2019-01-12T19:19:52.781Z,93.40
2019-01-12T19:22:24.732Z,98.55
2019-01-12T19:24:56.941Z,100.12
2019-01-12T19:27:28.816Z,113.55
2019-01-12T19:30:01.185Z,113.22
2019-01-12T19:32:33.163Z,108.63
2019-01-12T19:35:05.388Z,112.30
2019-01-12T19:37:37.258Z,108.20
2019-01-12T19:40:12.835Z,106.65
2019-01-12T19:42:45.067Z,101.25
2019-01-12T19:45:17.247Z,104.45
2019-01-12T19:47:49.323Z,107.63
2019-01-12T19:50:23.318Z,104.43
2019-01-12T19:52:55.751Z,98.70
2019-01-12T19:55:27.653Z,103.02
2019-01-12T19:57:59.608Z,118.17
2019-01-12T20:00:33.830Z,134.80
2019-01-12T20:03:05.705Z,108.60
2019-01-12T20:05:37.652Z,96.90
2019-01-12T20:08:09.638Z,93.90
2019-01-12T20:10:41.530Z,94.00
2019-01-12T20:13:13.450Z,80.57
2019-01-12T20:15:45.310Z,80.77
2019-01-12T20:18:20.192Z,94.17
2019-01-12T20:20:53.037Z,101.03
2019-01-12T20:23:26.420Z,107.87
2019-01-12T20:25:58.336Z,116.53
2019-01-12T20:28:30.215Z,107.93
2019-01-12T20:31:37.854Z,111.60
2019-01-12T20:34:49.974Z,85.43
2019-01-12T20:38:01.022Z,105.17
2019-01-12T20:40:58.406Z,89.30
2019-01-12T20:44:05.519Z,81.00
2019-01-12T20:47:19.317Z,79.40
2019-01-12T20:50:13.601Z,87.70
2019-01-12T20:53:23.709Z,83.43
2019-01-12T20:56:27.046Z,81.37
2019-01-12T20:59:11.154Z,73.17
2019-01-12T21:02:25.030Z,64.77
2019-01-12T21:05:22.521Z,64.93
2019-01-12T21:08:34.748Z,67.87
2019-01-12T21:11:43.784Z,81.77
2019-01-12T21:14:39.565Z,66.07
2019-01-12T21:17:13.636Z,71.17
2019-01-12T21:19:48.287Z,84.87
2019-01-12T21:22:20.642Z,75.10
2019-01-12T21:24:54.116Z,70.60
2019-01-12T21:27:26.021Z,63.43
2019-01-12T21:29:57.934Z,69.20
2019-01-12T21:32:29.797Z,67.70
2019-01-12T21:35:01.870Z,61.10
2019-01-12T21:37:34.074Z,63.97
2019-01-12T21:40:07.571Z,72.67
2019-01-12T21:42:39.556Z,93.10
2019-01-12T21:45:13.912Z,80.80
2019-01-12T21:47:45.837Z,70.90
2019-01-12T21:50:18.120Z,71.23
2019-01-12T21:52:50.666Z,70.03
2019-01-12T21:55:22.875Z,78.87
2019-01-12T21:57:54.801Z,89.20
2019-01-12T22:00:26.712Z,89.87
2019-01-12T22:02:58.721Z,83.87
2019-01-12T22:05:30.637Z,75.40
2019-01-12T22:08:04.305Z,74.30
2019-01-12T22:10:36.705Z,76.77
2019-01-12T22:13:08.573Z,73.47
2019-01-12T22:15:40.574Z,76.67
2019-01-12T22:18:12.459Z,77.00
2019-01-12T22:20:44.616Z,78.80
2019-01-12T22:23:16.536Z,76.53
2019-01-12T22:25:48.411Z,74.23
2019-01-12T22:28:20.902Z,72.10
2019-01-12T22:30:52.795Z,74.67
2019-01-12T22:33:27.112Z,75.30
2019-01-12T22:36:01.320Z,67.73
2019-01-12T22:38:33.295Z,79.03
2019-01-12T22:41:07.900Z,81.77
2019-01-12T22:43:39.761Z,71.10
2019-01-12T22:46:14.340Z,78.63
2019-01-12T22:48:46.161Z,84.03
2019-01-12T22:51:18.751Z,93.87
2019-01-12T22:53:52.069Z,72.00
2019-01-12T22:56:23.975Z,76.67
2019-01-12T22:58:55.906Z,76.80
2019-01-12T23:01:43.423Z,82.57
2019-01-12T23:04:22.247Z,77.77
2019-01-12T23:06:54.638Z,63.33
2019-01-12T23:09:45.154Z,60.37
2019-01-12T23:12:35.748Z,63.20
2019-01-12T23:15:25.918Z,60.93
2019-01-12T23:18:16.423Z,58.40
2019-01-12T23:21:06.988Z,56.50
2019-01-12T23:23:58.011Z,58.33
2019-01-12T23:26:48.781Z,58.00
2019-01-12T23:29:39.605Z,56.40
2019-01-12T23:32:30.125Z,53.07
2019-01-12T23:35:20.433Z,53.90
2019-01-12T23:38:10.745Z,57.23
2019-01-12T23:41:01.327Z,58.40
2019-01-12T23:43:52.057Z,57.00
2019-01-12T23:46:44.797Z,55.93
2019-01-12T23:49:34.967Z,54.10
2019-01-12T23:52:24.876Z,56.73
2019-01-12T23:55:15.515Z,57.57
2019-01-12T23:58:05.969Z,51.30
